Terminal Aerodrome Forecast
Issued by NWS Jacksonville, FL

Home | Current Version | Previous Version | Text Only | Print | Product List | Glossary On
Versions: 1 2 3 4 5 6 7 8 9 10 11 12 13 14 15 16 17 18 19 20 21 22 23 24 25
948
FTUS42 KJAX 050540
TAFJAX
TAF
KJAX 050540Z 0506/0606 30006KT P6SM SKC
     FM051200 28010G15KT P6SM FEW080
     FM051500 28018G30KT P6SM SKC
     FM052200 29013G23KT P6SM SCT070
     FM060000 30008KT P6SM FEW070=

USA.gov is the U.S. government's official web portal to all federal, state and local government web resources and services.